sensor_id;sensor_type;location;lat;lon;timestamp;pressure;altitude;pressure_sealevel;temperature
42673;BMP280;28284;46.514;30.724;2023-06-10T00:02:14;100362.69;;;22.49
42673;BMP280;28284;46.514;30.724;2023-06-10T00:04:41;100366.09;;;22.44
42673;BMP280;28284;46.514;30.724;2023-06-10T00:07:07;100368.56;;;22.42
42673;BMP280;28284;46.514;30.724;2023-06-10T00:09:39;100359.69;;;22.38
42673;BMP280;28284;46.514;30.724;2023-06-10T00:12:05;100330.91;;;22.21
42673;BMP280;28284;46.514;30.724;2023-06-10T00:14:32;100354.19;;;22.29
42673;BMP280;28284;46.514;30.724;2023-06-10T00:16:57;100348.06;;;22.25
42673;BMP280;28284;46.514;30.724;2023-06-10T00:19:22;100346.41;;;22.19
42673;BMP280;28284;46.514;30.724;2023-06-10T00:21:50;100346.25;;;22.13
42673;BMP280;28284;46.514;30.724;2023-06-10T00:24:17;100346.88;;;22.08
42673;BMP280;28284;46.514;30.724;2023-06-10T00:26:42;100345.69;;;22.00
42673;BMP280;28284;46.514;30.724;2023-06-10T00:29:08;100343.97;;;21.94
42673;BMP280;28284;46.514;30.724;2023-06-10T00:31:39;100346.28;;;21.86
42673;BMP280;28284;46.514;30.724;2023-06-10T00:34:04;100345.81;;;21.79
42673;BMP280;28284;46.514;30.724;2023-06-10T00:36:30;100335.72;;;21.76
42673;BMP280;28284;46.514;30.724;2023-06-10T00:38:55;100336.66;;;21.73
42673;BMP280;28284;46.514;30.724;2023-06-10T00:41:21;100329.16;;;21.65
42673;BMP280;28284;46.514;30.724;2023-06-10T00:43:46;100337.06;;;21.63
42673;BMP280;28284;46.514;30.724;2023-06-10T00:46:11;100338.78;;;21.51
42673;BMP280;28284;46.514;30.724;2023-06-10T00:48:37;100332.00;;;21.43
42673;BMP280;28284;46.514;30.724;2023-06-10T00:51:03;100338.00;;;21.33
42673;BMP280;28284;46.514;30.724;2023-06-10T00:53:30;100340.00;;;21.23
42673;BMP280;28284;46.514;30.724;2023-06-10T00:55:55;100337.97;;;21.15
42673;BMP280;28284;46.514;30.724;2023-06-10T00:58:20;100324.94;;;21.07
42673;BMP280;28284;46.514;30.724;2023-06-10T01:00:46;100323.69;;;20.99
42673;BMP280;28284;46.514;30.724;2023-06-10T01:03:11;100333.03;;;20.92
42673;BMP280;28284;46.514;30.724;2023-06-10T01:05:40;100327.34;;;20.87
42673;BMP280;28284;46.514;30.724;2023-06-10T01:08:19;100325.19;;;20.82
42673;BMP280;28284;46.514;30.724;2023-06-10T01:10:53;100325.00;;;20.76
42673;BMP280;28284;46.514;30.724;2023-06-10T01:13:20;100322.06;;;20.71
42673;BMP280;28284;46.514;30.724;2023-06-10T01:15:48;100324.97;;;20.67
42673;BMP280;28284;46.514;30.724;2023-06-10T01:18:14;100322.81;;;20.62
42673;BMP280;28284;46.514;30.724;2023-06-10T01:20:40;100328.91;;;20.58
42673;BMP280;28284;46.514;30.724;2023-06-10T01:23:06;100330.72;;;20.52
42673;BMP280;28284;46.514;30.724;2023-06-10T01:25:32;100327.63;;;20.50
42673;BMP280;28284;46.514;30.724;2023-06-10T01:33:17;100328.50;;;20.38
42673;BMP280;28284;46.514;30.724;2023-06-10T01:35:43;100332.16;;;20.35
42673;BMP280;28284;46.514;30.724;2023-06-10T01:38:10;100333.16;;;20.28
42673;BMP280;28284;46.514;30.724;2023-06-10T01:40:35;100338.81;;;20.25
42673;BMP280;28284;46.514;30.724;2023-06-10T01:43:01;100335.75;;;20.23
42673;BMP280;28284;46.514;30.724;2023-06-10T01:45:27;100327.63;;;20.19
42673;BMP280;28284;46.514;30.724;2023-06-10T01:47:52;100330.16;;;20.14
42673;BMP280;28284;46.514;30.724;2023-06-10T01:50:17;100327.88;;;20.12
42673;BMP280;28284;46.514;30.724;2023-06-10T01:52:42;100333.81;;;20.11
42673;BMP280;28284;46.514;30.724;2023-06-10T01:55:08;100329.53;;;20.10
42673;BMP280;28284;46.514;30.724;2023-06-10T01:57:33;100326.78;;;20.10
42673;BMP280;28284;46.514;30.724;2023-06-10T01:59:58;100330.75;;;20.09
42673;BMP280;28284;46.514;30.724;2023-06-10T02:02:24;100332.75;;;20.08
42673;BMP280;28284;46.514;30.724;2023-06-10T02:04:50;100329.22;;;20.08
42673;BMP280;28284;46.514;30.724;2023-06-10T02:07:15;100334.72;;;20.08
42673;BMP280;28284;46.514;30.724;2023-06-10T02:09:41;100334.41;;;20.06
42673;BMP280;28284;46.514;30.724;2023-06-10T02:12:06;100339.78;;;20.09
42673;BMP280;28284;46.514;30.724;2023-06-10T02:14:32;100332.91;;;20.14
42673;BMP280;28284;46.514;30.724;2023-06-10T02:16:57;100330.25;;;20.23
42673;BMP280;28284;46.514;30.724;2023-06-10T02:19:23;100331.81;;;20.33
42673;BMP280;28284;46.514;30.724;2023-06-10T02:21:50;100326.53;;;20.38
42673;BMP280;28284;46.514;30.724;2023-06-10T02:24:15;100333.06;;;20.41
42673;BMP280;28284;46.514;30.724;2023-06-10T02:26:41;100330.53;;;20.46
42673;BMP280;28284;46.514;30.724;2023-06-10T02:29:06;100334.28;;;20.70
42673;BMP280;28284;46.514;30.724;2023-06-10T02:31:31;100333.19;;;21.07
42673;BMP280;28284;46.514;30.724;2023-06-10T02:34:00;100340.47;;;21.49
42673;BMP280;28284;46.514;30.724;2023-06-10T02:36:25;100347.00;;;22.05
42673;BMP280;28284;46.514;30.724;2023-06-10T02:38:53;100346.97;;;22.64
42673;BMP280;28284;46.514;30.724;2023-06-10T02:41:18;100358.38;;;23.36
42673;BMP280;28284;46.514;30.724;2023-06-10T02:43:44;100359.19;;;24.03
42673;BMP280;28284;46.514;30.724;2023-06-10T02:46:09;100355.72;;;24.70
42673;BMP280;28284;46.514;30.724;2023-06-10T02:48:40;100363.06;;;25.08
42673;BMP280;28284;46.514;30.724;2023-06-10T02:51:05;100356.81;;;25.32
42673;BMP280;28284;46.514;30.724;2023-06-10T02:53:31;100355.50;;;25.48
42673;BMP280;28284;46.514;30.724;2023-06-10T02:55:56;100363.84;;;25.48
42673;BMP280;28284;46.514;30.724;2023-06-10T02:58:21;100362.84;;;25.51
42673;BMP280;28284;46.514;30.724;2023-06-10T03:00:47;100371.28;;;26.12
42673;BMP280;28284;46.514;30.724;2023-06-10T03:03:12;100374.78;;;26.85
42673;BMP280;28284;46.514;30.724;2023-06-10T03:05:38;100382.84;;;27.30
42673;BMP280;28284;46.514;30.724;2023-06-10T03:08:04;100384.94;;;27.62
42673;BMP280;28284;46.514;30.724;2023-06-10T03:10:29;100382.47;;;27.86
42673;BMP280;28284;46.514;30.724;2023-06-10T03:12:54;100386.25;;;28.26
42673;BMP280;28284;46.514;30.724;2023-06-10T03:15:19;100388.25;;;28.53
42673;BMP280;28284;46.514;30.724;2023-06-10T03:17:45;100390.03;;;28.51
42673;BMP280;28284;46.514;30.724;2023-06-10T03:20:11;100391.78;;;28.43
42673;BMP280;28284;46.514;30.724;2023-06-10T03:22:36;100384.44;;;28.29
42673;BMP280;28284;46.514;30.724;2023-06-10T03:25:03;100387.75;;;28.38
42673;BMP280;28284;46.514;30.724;2023-06-10T03:27:28;100384.72;;;28.42
42673;BMP280;28284;46.514;30.724;2023-06-10T03:29:55;100388.44;;;28.66
42673;BMP280;28284;46.514;30.724;2023-06-10T03:32:20;100388.16;;;28.80
42673;BMP280;28284;46.514;30.724;2023-06-10T03:34:45;100391.75;;;28.65
42673;BMP280;28284;46.514;30.724;2023-06-10T03:37:12;100385.13;;;28.73
42673;BMP280;28284;46.514;30.724;2023-06-10T03:39:37;100388.66;;;28.84
42673;BMP280;28284;46.514;30.724;2023-06-10T03:42:03;100388.59;;;29.01
42673;BMP280;28284;46.514;30.724;2023-06-10T03:44:28;100395.50;;;28.78
42673;BMP280;28284;46.514;30.724;2023-06-10T03:46:54;100393.31;;;28.38
42673;BMP280;28284;46.514;30.724;2023-06-10T03:49:19;100385.94;;;28.57
42673;BMP280;28284;46.514;30.724;2023-06-10T03:51:45;100382.69;;;28.53
42673;BMP280;28284;46.514;30.724;2023-06-10T03:54:10;100394.72;;;28.83
42673;BMP280;28284;46.514;30.724;2023-06-10T03:56:35;100388.09;;;28.86
42673;BMP280;28284;46.514;30.724;2023-06-10T03:59:01;100373.38;;;29.02
42673;BMP280;28284;46.514;30.724;2023-06-10T04:01:26;100388.50;;;29.17
42673;BMP280;28284;46.514;30.724;2023-06-10T04:03:52;100385.47;;;29.15
42673;BMP280;28284;46.514;30.724;2023-06-10T04:06:19;100374.66;;;28.95
42673;BMP280;28284;46.514;30.724;2023-06-10T04:08:44;100384.28;;;29.00
42673;BMP280;28284;46.514;30.724;2023-06-10T04:11:09;100386.13;;;29.37
42673;BMP280;28284;46.514;30.724;2023-06-10T04:13:35;100378.31;;;29.65
42673;BMP280;28284;46.514;30.724;2023-06-10T04:16:00;100373.75;;;30.20
42673;BMP280;28284;46.514;30.724;2023-06-10T04:18:25;100385.44;;;30.90
42673;BMP280;28284;46.514;30.724;2023-06-10T04:20:51;100387.97;;;31.61
42673;BMP280;28284;46.514;30.724;2023-06-10T04:23:16;100405.56;;;32.32
42673;BMP280;28284;46.514;30.724;2023-06-10T04:25:42;100404.66;;;33.21
42673;BMP280;28284;46.514;30.724;2023-06-10T04:28:07;100408.38;;;34.18
42673;BMP280;28284;46.514;30.724;2023-06-10T04:30:32;100411.69;;;34.79
42673;BMP280;28284;46.514;30.724;2023-06-10T04:32:58;100417.25;;;35.14
42673;BMP280;28284;46.514;30.724;2023-06-10T04:35:23;100423.72;;;35.66
42673;BMP280;28284;46.514;30.724;2023-06-10T04:37:51;100426.28;;;36.24
42673;BMP280;28284;46.514;30.724;2023-06-10T04:40:16;100426.03;;;36.51
42673;BMP280;28284;46.514;30.724;2023-06-10T04:42:42;100418.50;;;36.85
42673;BMP280;28284;46.514;30.724;2023-06-10T04:45:07;100416.34;;;36.69
42673;BMP280;28284;46.514;30.724;2023-06-10T04:47:33;100417.47;;;36.66
42673;BMP280;28284;46.514;30.724;2023-06-10T04:50:01;100411.09;;;36.66
42673;BMP280;28284;46.514;30.724;2023-06-10T04:52:27;100418.91;;;36.36
42673;BMP280;28284;46.514;30.724;2023-06-10T04:54:53;100413.50;;;36.23
42673;BMP280;28284;46.514;30.724;2023-06-10T04:57:19;100411.59;;;36.33
42673;BMP280;28284;46.514;30.724;2023-06-10T04:59:45;100412.63;;;36.59
42673;BMP280;28284;46.514;30.724;2023-06-10T05:02:10;100411.53;;;36.94
42673;BMP280;28284;46.514;30.724;2023-06-10T05:04:35;100416.72;;;37.05
42673;BMP280;28284;46.514;30.724;2023-06-10T05:07:01;100410.00;;;37.49
42673;BMP280;28284;46.514;30.724;2023-06-10T05:09:26;100407.28;;;37.58
42673;BMP280;28284;46.514;30.724;2023-06-10T05:11:51;100409.28;;;37.41
42673;BMP280;28284;46.514;30.724;2023-06-10T05:14:18;100407.25;;;37.10
42673;BMP280;28284;46.514;30.724;2023-06-10T05:16:45;100401.19;;;37.20
42673;BMP280;28284;46.514;30.724;2023-06-10T05:19:11;100402.97;;;37.01
42673;BMP280;28284;46.514;30.724;2023-06-10T05:21:36;100395.88;;;36.93
42673;BMP280;28284;46.514;30.724;2023-06-10T05:24:01;100393.63;;;36.91
42673;BMP280;28284;46.514;30.724;2023-06-10T05:26:27;100389.91;;;36.81
42673;BMP280;28284;46.514;30.724;2023-06-10T05:28:54;100398.88;;;37.26
42673;BMP280;28284;46.514;30.724;2023-06-10T05:31:19;100408.94;;;37.61
42673;BMP280;28284;46.514;30.724;2023-06-10T05:33:44;100397.84;;;37.80
42673;BMP280;28284;46.514;30.724;2023-06-10T05:36:10;100400.28;;;37.59
42673;BMP280;28284;46.514;30.724;2023-06-10T05:38:35;100407.41;;;38.01
42673;BMP280;28284;46.514;30.724;2023-06-10T05:41:00;100411.66;;;38.09
42673;BMP280;28284;46.514;30.724;2023-06-10T05:43:26;100408.31;;;38.20
42673;BMP280;28284;46.514;30.724;2023-06-10T05:45:51;100409.97;;;37.90
42673;BMP280;28284;46.514;30.724;2023-06-10T05:48:16;100398.72;;;36.93
42673;BMP280;28284;46.514;30.724;2023-06-10T05:50:42;100393.75;;;36.15
42673;BMP280;28284;46.514;30.724;2023-06-10T05:53:09;100395.16;;;35.77
42673;BMP280;28284;46.514;30.724;2023-06-10T05:55:41;100396.06;;;35.72
42673;BMP280;28284;46.514;30.724;2023-06-10T05:58:06;100384.97;;;35.74
42673;BMP280;28284;46.514;30.724;2023-06-10T06:00:31;100386.47;;;35.97
42673;BMP280;28284;46.514;30.724;2023-06-10T06:02:56;100385.84;;;36.29
42673;BMP280;28284;46.514;30.724;2023-06-10T06:05:22;100384.56;;;36.54
42673;BMP280;28284;46.514;30.724;2023-06-10T06:07:47;100396.47;;;36.52
42673;BMP280;28284;46.514;30.724;2023-06-10T06:10:13;100394.47;;;36.31
42673;BMP280;28284;46.514;30.724;2023-06-10T06:12:38;100390.50;;;36.34
42673;BMP280;28284;46.514;30.724;2023-06-10T06:15:03;100390.31;;;36.78
42673;BMP280;28284;46.514;30.724;2023-06-10T06:17:29;100401.59;;;37.10
42673;BMP280;28284;46.514;30.724;2023-06-10T06:19:54;100395.84;;;37.00
42673;BMP280;28284;46.514;30.724;2023-06-10T06:22:20;100392.75;;;36.74
42673;BMP280;28284;46.514;30.724;2023-06-10T06:24:47;100391.56;;;36.45
42673;BMP280;28284;46.514;30.724;2023-06-10T06:27:12;100383.00;;;36.29
42673;BMP280;28284;46.514;30.724;2023-06-10T06:29:37;100399.94;;;36.29
42673;BMP280;28284;46.514;30.724;2023-06-10T06:32:03;100390.31;;;36.32
42673;BMP280;28284;46.514;30.724;2023-06-10T06:34:28;100388.31;;;36.64
42673;BMP280;28284;46.514;30.724;2023-06-10T06:36:53;100382.59;;;36.78
42673;BMP280;28284;46.514;30.724;2023-06-10T06:39:19;100385.63;;;36.80
42673;BMP280;28284;46.514;30.724;2023-06-10T06:41:44;100384.03;;;36.55
42673;BMP280;28284;46.514;30.724;2023-06-10T06:44:09;100396.00;;;36.24
42673;BMP280;28284;46.514;30.724;2023-06-10T06:46:34;100380.09;;;35.90
42673;BMP280;28284;46.514;30.724;2023-06-10T06:49:02;100384.97;;;35.82
42673;BMP280;28284;46.514;30.724;2023-06-10T06:51:27;100377.47;;;35.84
42673;BMP280;28284;46.514;30.724;2023-06-10T06:53:52;100389.13;;;35.81
42673;BMP280;28284;46.514;30.724;2023-06-10T06:56:21;100384.59;;;35.70
42673;BMP280;28284;46.514;30.724;2023-06-10T06:58:47;100379.75;;;35.71
42673;BMP280;28284;46.514;30.724;2023-06-10T07:01:12;100378.56;;;35.96
42673;BMP280;28284;46.514;30.724;2023-06-10T07:03:37;100370.28;;;36.05
42673;BMP280;28284;46.514;30.724;2023-06-10T07:06:03;100367.81;;;36.17
42673;BMP280;28284;46.514;30.724;2023-06-10T07:08:28;100369.47;;;36.66
42673;BMP280;28284;46.514;30.724;2023-06-10T07:10:54;100373.94;;;37.32
42673;BMP280;28284;46.514;30.724;2023-06-10T07:13:19;100385.72;;;37.62
42673;BMP280;28284;46.514;30.724;2023-06-10T07:15:45;100376.25;;;37.67
42673;BMP280;28284;46.514;30.724;2023-06-10T07:18:10;100380.00;;;37.70
42673;BMP280;28284;46.514;30.724;2023-06-10T07:20:35;100374.34;;;37.29
42673;BMP280;28284;46.514;30.724;2023-06-10T07:23:01;100369.16;;;36.94
42673;BMP280;28284;46.514;30.724;2023-06-10T07:25:26;100371.09;;;36.84
42673;BMP280;28284;46.514;30.724;2023-06-10T07:27:51;100366.31;;;36.62
42673;BMP280;28284;46.514;30.724;2023-06-10T07:30:16;100362.94;;;36.56
42673;BMP280;28284;46.514;30.724;2023-06-10T07:32:42;100369.56;;;36.51
42673;BMP280;28284;46.514;30.724;2023-06-10T07:35:08;100363.84;;;36.59
42673;BMP280;28284;46.514;30.724;2023-06-10T07:37:34;100373.28;;;36.15
42673;BMP280;28284;46.514;30.724;2023-06-10T07:40:00;100352.50;;;35.44
42673;BMP280;28284;46.514;30.724;2023-06-10T07:42:25;100354.84;;;34.95
42673;BMP280;28284;46.514;30.724;2023-06-10T07:44:50;100345.41;;;34.63
42673;BMP280;28284;46.514;30.724;2023-06-10T07:47:15;100348.75;;;34.54
42673;BMP280;28284;46.514;30.724;2023-06-10T07:49:41;100349.53;;;34.69
42673;BMP280;28284;46.514;30.724;2023-06-10T07:52:07;100356.75;;;35.00
42673;BMP280;28284;46.514;30.724;2023-06-10T07:54:32;100338.91;;;34.90
42673;BMP280;28284;46.514;30.724;2023-06-10T07:56:57;100348.16;;;35.13
42673;BMP280;28284;46.514;30.724;2023-06-10T07:59:23;100341.22;;;35.29
42673;BMP280;28284;46.514;30.724;2023-06-10T08:01:48;100344.03;;;35.21
42673;BMP280;28284;46.514;30.724;2023-06-10T08:04:13;100345.91;;;35.04
42673;BMP280;28284;46.514;30.724;2023-06-10T08:06:38;100339.84;;;35.00
42673;BMP280;28284;46.514;30.724;2023-06-10T08:09:04;100349.59;;;34.84
42673;BMP280;28284;46.514;30.724;2023-06-10T08:11:29;100339.78;;;34.63
42673;BMP280;28284;46.514;30.724;2023-06-10T08:13:55;100327.53;;;34.61
42673;BMP280;28284;46.514;30.724;2023-06-10T08:16:20;100340.50;;;34.56
42673;BMP280;28284;46.514;30.724;2023-06-10T08:18:45;100344.78;;;34.50
42673;BMP280;28284;46.514;30.724;2023-06-10T08:21:11;100342.69;;;34.43
42673;BMP280;28284;46.514;30.724;2023-06-10T08:23:36;100345.63;;;34.30
42673;BMP280;28284;46.514;30.724;2023-06-10T08:26:01;100333.47;;;34.35
42673;BMP280;28284;46.514;30.724;2023-06-10T08:28:27;100325.53;;;34.19
42673;BMP280;28284;46.514;30.724;2023-06-10T08:30:52;100325.78;;;34.08
42673;BMP280;28284;46.514;30.724;2023-06-10T08:33:17;100325.31;;;34.24
42673;BMP280;28284;46.514;30.724;2023-06-10T08:35:43;100321.78;;;34.66
42673;BMP280;28284;46.514;30.724;2023-06-10T08:38:08;100322.22;;;34.92
42673;BMP280;28284;46.514;30.724;2023-06-10T08:40:34;100327.47;;;34.96
42673;BMP280;28284;46.514;30.724;2023-06-10T08:43:06;100319.22;;;35.05
42673;BMP280;28284;46.514;30.724;2023-06-10T08:45:32;100319.44;;;35.22
42673;BMP280;28284;46.514;30.724;2023-06-10T08:48:00;100325.81;;;35.15
42673;BMP280;28284;46.514;30.724;2023-06-10T08:50:28;100317.47;;;34.80
42673;BMP280;28284;46.514;30.724;2023-06-10T08:52:56;100322.91;;;34.78
42673;BMP280;28284;46.514;30.724;2023-06-10T08:55:27;100319.38;;;34.77
42673;BMP280;28284;46.514;30.724;2023-06-10T08:57:53;100318.28;;;34.88
42673;BMP280;28284;46.514;30.724;2023-06-10T09:00:19;100320.34;;;34.95
42673;BMP280;28284;46.514;30.724;2023-06-10T09:02:44;100316.91;;;34.81
42673;BMP280;28284;46.514;30.724;2023-06-10T09:05:10;100309.97;;;34.75
42673;BMP280;28284;46.514;30.724;2023-06-10T09:07:36;100311.84;;;34.72
42673;BMP280;28284;46.514;30.724;2023-06-10T09:10:02;100319.88;;;34.61
42673;BMP280;28284;46.514;30.724;2023-06-10T09:12:32;100307.44;;;34.42
42673;BMP280;28284;46.514;30.724;2023-06-10T09:14:57;100298.38;;;34.36
42673;BMP280;28284;46.514;30.724;2023-06-10T09:17:23;100309.03;;;34.30
42673;BMP280;28284;46.514;30.724;2023-06-10T09:19:48;100305.38;;;34.07
42673;BMP280;28284;46.514;30.724;2023-06-10T09:22:14;100300.88;;;34.04
42673;BMP280;28284;46.514;30.724;2023-06-10T09:24:39;100300.28;;;33.98
42673;BMP280;28284;46.514;30.724;2023-06-10T09:27:06;100293.69;;;33.96
42673;BMP280;28284;46.514;30.724;2023-06-10T09:29:32;100288.72;;;33.81
42673;BMP280;28284;46.514;30.724;2023-06-10T09:31:59;100290.72;;;33.74
42673;BMP280;28284;46.514;30.724;2023-06-10T09:34:25;100283.00;;;33.67
42673;BMP280;28284;46.514;30.724;2023-06-10T09:36:51;100291.13;;;33.50
42673;BMP280;28284;46.514;30.724;2023-06-10T09:39:17;100294.00;;;33.37
42673;BMP280;28284;46.514;30.724;2023-06-10T09:41:43;100285.31;;;33.28
42673;BMP280;28284;46.514;30.724;2023-06-10T09:44:11;100289.91;;;33.18
42673;BMP280;28284;46.514;30.724;2023-06-10T09:46:36;100287.78;;;32.91
42673;BMP280;28284;46.514;30.724;2023-06-10T09:49:01;100289.13;;;32.64
42673;BMP280;28284;46.514;30.724;2023-06-10T09:51:27;100286.38;;;32.51
42673;BMP280;28284;46.514;30.724;2023-06-10T09:53:52;100272.25;;;32.44
42673;BMP280;28284;46.514;30.724;2023-06-10T09:56:18;100276.78;;;32.34
42673;BMP280;28284;46.514;30.724;2023-06-10T09:58:44;100283.91;;;32.22
42673;BMP280;28284;46.514;30.724;2023-06-10T10:01:11;100267.00;;;32.02
42673;BMP280;28284;46.514;30.724;2023-06-10T10:03:47;100265.72;;;31.90
42673;BMP280;28284;46.514;30.724;2023-06-10T10:06:13;100264.84;;;31.82
42673;BMP280;28284;46.514;30.724;2023-06-10T10:08:39;100258.25;;;31.79
42673;BMP280;28284;46.514;30.724;2023-06-10T10:11:04;100262.16;;;31.76
42673;BMP280;28284;46.514;30.724;2023-06-10T10:13:29;100249.09;;;31.66
42673;BMP280;28284;46.514;30.724;2023-06-10T10:15:59;100254.47;;;31.64
42673;BMP280;28284;46.514;30.724;2023-06-10T10:18:25;100248.44;;;31.47
42673;BMP280;28284;46.514;30.724;2023-06-10T10:20:55;100251.63;;;31.38
42673;BMP280;28284;46.514;30.724;2023-06-10T10:23:24;100251.94;;;31.35
42673;BMP280;28284;46.514;30.724;2023-06-10T10:25:51;100244.28;;;31.35
42673;BMP280;28284;46.514;30.724;2023-06-10T10:28:17;100237.59;;;31.25
42673;BMP280;28284;46.514;30.724;2023-06-10T10:30:48;100238.31;;;31.13
42673;BMP280;28284;46.514;30.724;2023-06-10T10:33:22;100224.44;;;31.08
42673;BMP280;28284;46.514;30.724;2023-06-10T10:35:48;100231.47;;;30.96
42673;BMP280;28284;46.514;30.724;2023-06-10T10:38:14;100234.22;;;30.83
42673;BMP280;28284;46.514;30.724;2023-06-10T10:40:40;100231.59;;;30.72
42673;BMP280;28284;46.514;30.724;2023-06-10T10:43:06;100222.75;;;30.68
42673;BMP280;28284;46.514;30.724;2023-06-10T10:45:33;100225.91;;;30.59
42673;BMP280;28284;46.514;30.724;2023-06-10T10:47:58;100227.06;;;30.51
42673;BMP280;28284;46.514;30.724;2023-06-10T10:50:28;100220.97;;;30.47
42673;BMP280;28284;46.514;30.724;2023-06-10T10:52:56;100219.03;;;30.42
42673;BMP280;28284;46.514;30.724;2023-06-10T10:55:23;100218.91;;;30.34
42673;BMP280;28284;46.514;30.724;2023-06-10T11:02:52;100224.47;;;30.16
42673;BMP280;28284;46.514;30.724;2023-06-10T11:05:19;100219.16;;;30.13
42673;BMP280;28284;46.514;30.724;2023-06-10T11:07:55;100207.97;;;30.13
42673;BMP280;28284;46.514;30.724;2023-06-10T11:10:28;100204.59;;;30.19
42673;BMP280;28284;46.514;30.724;2023-06-10T11:12:54;100216.44;;;30.25
42673;BMP280;28284;46.514;30.724;2023-06-10T11:15:22;100203.47;;;30.28
42673;BMP280;28284;46.514;30.724;2023-06-10T11:26:11;100198.41;;;30.45
42673;BMP280;28284;46.514;30.724;2023-06-10T11:28:37;100187.44;;;30.47
42673;BMP280;28284;46.514;30.724;2023-06-10T11:31:02;100194.25;;;30.51
42673;BMP280;28284;46.514;30.724;2023-06-10T11:33:28;100194.69;;;30.55
42673;BMP280;28284;46.514;30.724;2023-06-10T11:35:53;100188.59;;;30.57
42673;BMP280;28284;46.514;30.724;2023-06-10T11:38:19;100188.72;;;30.64
42673;BMP280;28284;46.514;30.724;2023-06-10T11:40:51;100194.25;;;30.69
42673;BMP280;28284;46.514;30.724;2023-06-10T11:43:19;100186.53;;;30.75
42673;BMP280;28284;46.514;30.724;2023-06-10T11:45:45;100193.31;;;30.80
42673;BMP280;28284;46.514;30.724;2023-06-10T11:48:11;100183.00;;;30.88
42673;BMP280;28284;46.514;30.724;2023-06-10T11:50:37;100180.16;;;30.93
42673;BMP280;28284;46.514;30.724;2023-06-10T11:53:02;100171.13;;;31.00
42673;BMP280;28284;46.514;30.724;2023-06-10T11:55:47;100177.63;;;31.08
42673;BMP280;28284;46.514;30.724;2023-06-10T11:58:13;100162.22;;;31.14
42673;BMP280;28284;46.514;30.724;2023-06-10T12:03:10;100170.75;;;31.35
42673;BMP280;28284;46.514;30.724;2023-06-10T12:05:35;100158.94;;;31.42
42673;BMP280;28284;46.514;30.724;2023-06-10T12:08:10;100164.44;;;31.47
42673;BMP280;28284;46.514;30.724;2023-06-10T12:10:42;100159.78;;;31.50
42673;BMP280;28284;46.514;30.724;2023-06-10T12:13:10;100162.50;;;31.55
42673;BMP280;28284;46.514;30.724;2023-06-10T12:15:36;100153.53;;;31.56
42673;BMP280;28284;46.514;30.724;2023-06-10T12:18:02;100161.19;;;31.56
42673;BMP280;28284;46.514;30.724;2023-06-10T12:20:28;100158.72;;;31.53
42673;BMP280;28284;46.514;30.724;2023-06-10T12:22:54;100161.44;;;31.45
42673;BMP280;28284;46.514;30.724;2023-06-10T12:25:24;100152.13;;;31.37
42673;BMP280;28284;46.514;30.724;2023-06-10T12:27:50;100161.38;;;31.32
42673;BMP280;28284;46.514;30.724;2023-06-10T12:30:19;100161.03;;;31.23
42673;BMP280;28284;46.514;30.724;2023-06-10T12:32:45;100166.97;;;31.19
42673;BMP280;28284;46.514;30.724;2023-06-10T12:35:11;100156.09;;;31.16
42673;BMP280;28284;46.514;30.724;2023-06-10T12:37:37;100153.16;;;31.09
42673;BMP280;28284;46.514;30.724;2023-06-10T12:40:04;100161.50;;;30.96
42673;BMP280;28284;46.514;30.724;2023-06-10T12:42:31;100166.53;;;30.84
42673;BMP280;28284;46.514;30.724;2023-06-10T12:44:58;100163.31;;;30.80
42673;BMP280;28284;46.514;30.724;2023-06-10T12:47:35;100162.63;;;30.74
42673;BMP280;28284;46.514;30.724;2023-06-10T12:50:03;100161.22;;;30.68
42673;BMP280;28284;46.514;30.724;2023-06-10T12:52:29;100171.50;;;30.60
42673;BMP280;28284;46.514;30.724;2023-06-10T12:54:54;100162.19;;;30.52
42673;BMP280;28284;46.514;30.724;2023-06-10T12:57:20;100153.75;;;30.39
42673;BMP280;28284;46.514;30.724;2023-06-10T12:59:45;100163.00;;;30.34
42673;BMP280;28284;46.514;30.724;2023-06-10T13:02:15;100144.63;;;30.20
42673;BMP280;28284;46.514;30.724;2023-06-10T13:04:41;100158.59;;;30.20
42673;BMP280;28284;46.514;30.724;2023-06-10T13:07:07;100156.09;;;30.17
42673;BMP280;28284;46.514;30.724;2023-06-10T13:09:32;100159.22;;;30.14
42673;BMP280;28284;46.514;30.724;2023-06-10T13:11:58;100164.59;;;30.06
42673;BMP280;28284;46.514;30.724;2023-06-10T13:14:25;100168.53;;;29.98
42673;BMP280;28284;46.514;30.724;2023-06-10T13:16:50;100163.84;;;29.87
42673;BMP280;28284;46.514;30.724;2023-06-10T13:19:15;100165.19;;;29.81
42673;BMP280;28284;46.514;30.724;2023-06-10T13:21:41;100182.00;;;29.75
42673;BMP280;28284;46.514;30.724;2023-06-10T13:24:06;100169.41;;;29.69
42673;BMP280;28284;46.514;30.724;2023-06-10T13:26:32;100163.59;;;29.67
42673;BMP280;28284;46.514;30.724;2023-06-10T13:28:57;100157.75;;;29.65
42673;BMP280;28284;46.514;30.724;2023-06-10T13:31:22;100174.28;;;29.63
42673;BMP280;28284;46.514;30.724;2023-06-10T13:33:48;100158.06;;;29.62
42673;BMP280;28284;46.514;30.724;2023-06-10T13:36:13;100162.06;;;29.66
42673;BMP280;28284;46.514;30.724;2023-06-10T13:38:38;100151.13;;;29.68
42673;BMP280;28284;46.514;30.724;2023-06-10T13:41:04;100167.09;;;29.67
42673;BMP280;28284;46.514;30.724;2023-06-10T13:43:29;100163.03;;;29.68
42673;BMP280;28284;46.514;30.724;2023-06-10T13:45:54;100149.53;;;29.72
42673;BMP280;28284;46.514;30.724;2023-06-10T13:48:20;100158.16;;;29.74
42673;BMP280;28284;46.514;30.724;2023-06-10T13:50:45;100156.56;;;29.79
42673;BMP280;28284;46.514;30.724;2023-06-10T13:53:11;100162.41;;;29.81
42673;BMP280;28284;46.514;30.724;2023-06-10T13:55:36;100154.56;;;29.79
42673;BMP280;28284;46.514;30.724;2023-06-10T13:58:01;100158.38;;;29.76
42673;BMP280;28284;46.514;30.724;2023-06-10T14:00:27;100150.97;;;29.79